Weather at Aeródromo Torraccia

Public forecast

Using degrees Celsius for public forecast. Weather courtesy of forecast.io.

Closest aviation weather report (METAR) to Aeródromo Torraccia

Closest report is Federico Fellini International Airport, 6.1 nm (11.3 km) NE.

2024/05/26 14:20 (retrieved 31 minutes ago)

LIPR 261420Z AUTO 08006KT 040V120 9999 NCD 23/15 Q1017

Closest aviation forecast (TAF) to Aeródromo Torraccia

Closest forecast is Federico Fellini International Airport, 6.1 nm (11.3 km) NE.

2024/05/26 12:21 (retrieved 3 hours ago)

TAF LIPR 261100Z 2612/2712 02010KT CAVOK BECMG 2616/2618 VRB05KT